Boca do Monte, Brazil
Current Conditions -  °F | °C
As of 9:00 AM on Friday 24 Oct 2014 (Local Time) from SBSM Reporting Station
Scattered Clouds Scattered Clouds  
Wind Chill: 64°   Ceiling: Unl
Heat Index: 64°   Visibility: 6mi
Dew Point: 63°   Wind: 5mph
Humidity: 94%   Direction: 120°ESE
Pressure: 29.97"   Gusts: NA
Location:  29.64°S, 53.93°W
Report Text: SBSM 241100Z 12004KT 9999 SCT003 18/17 Q1015
Loading
Personal Weather Stations






























Interactive Weather Map
Tropical Storm Tracking
New forecast layout! Learn more

10-Day Weather Forecast

Advertisements
Track Severe Weather on mobile